West Franklin, New Hampshire
Current Conditions -  °F | °C
As of 4:35 AM on Thursday 18 Dec 2014 (Local Time) from KLCI Reporting Station
Overcast Overcast  
Wind Chill: -2°   Ceiling: 2100
Heat Index:   Visibility: 10mi
Dew Point:   Wind: 8mph
Humidity: 87%   Direction: 240°WSW
Pressure: 29.64"   Gusts: NA
Location:  43.4435°N, 71.6697°W
Report Text: KLCI 180935Z AUTO 24007KT 10SM FEW014 OVC021 02/00 A2964 RMK AO1
Loading
Personal Weather Stations






























Interactive Weather Map New forecast layout! Learn more

10-Day Weather Forecast

Advertisements
Track Severe Weather on mobile